Time;durP1;ratioP1;P1;durP2;ratioP2;P2;SDS_P1;SDS_P2;PMS_P1;PMS_P2;Temp;Humidity;BMP_temperature;BMP_pressure;BME280_temperature;BME280_humidity;BME280_pressure;Samples;Min_cycle;Max_cycle;Signal;HPM_P1;HPM_P2
2023/06/30 00:02:06;;;;;;;6.07;5.87;;;15.30;99.90;;;;;;5026456;28;20974;-66
2023/06/30 00:04:32;;;;;;;6.83;6.40;;;15.30;99.90;;;;;;5039610;28;20461;-67
2023/06/30 00:07:00;;;;;;;6.63;6.33;;;15.30;99.90;;;;;;5042692;28;20545;-66
2023/06/30 00:09:26;;;;;;;7.33;7.03;;;15.20;99.90;;;;;;5037363;28;20910;-66
2023/06/30 00:11:55;;;;;;;6.07;5.87;;;15.20;99.90;;;;;;5026680;28;20640;-68
2023/06/30 00:14:23;;;;;;;7.00;6.63;;;15.20;99.90;;;;;;5034499;28;21174;-65
2023/06/30 00:16:51;;;;;;;6.93;6.20;;;15.20;99.90;;;;;;5041975;28;20460;-66
2023/06/30 00:19:18;;;;;;;7.43;7.13;;;15.20;99.90;;;;;;5039173;28;20545;-67
2023/06/30 00:21:45;;;;;;;6.30;6.10;;;15.20;99.90;;;;;;5046771;28;20541;-68
2023/06/30 00:24:13;;;;;;;6.70;6.43;;;15.20;99.90;;;;;;5033161;28;20464;-68
2023/06/30 00:26:41;;;;;;;6.63;6.33;;;15.20;99.90;;;;;;5034415;28;20468;-67
2023/06/30 00:29:09;;;;;;;11.40;5.80;;;15.10;99.90;;;;;;5035360;28;20541;-68
2023/06/30 00:31:36;;;;;;;4.30;4.20;;;15.10;99.90;;;;;;5032387;28;20978;-67
2023/06/30 00:34:02;;;;;;;5.63;5.33;;;15.10;99.90;;;;;;5040702;28;20521;-66
2023/06/30 00:36:31;;;;;;;5.53;5.33;;;15.10;99.90;;;;;;5040180;28;20464;-68
2023/06/30 00:38:58;;;;;;;7.70;7.10;;;15.10;99.90;;;;;;5044203;28;20496;-67
2023/06/30 00:41:25;;;;;;;5.83;5.63;;;15.10;99.90;;;;;;5045335;28;20483;-66
2023/06/30 00:43:51;;;;;;;6.50;6.00;;;15.10;99.90;;;;;;5038777;28;20463;-66
2023/06/30 00:46:20;;;;;;;7.20;6.80;;;15.10;99.90;;;;;;5040639;28;22507;-67
2023/06/30 00:48:47;;;;;;;6.70;6.40;;;15.10;99.90;;;;;;5047013;28;20479;-68
2023/06/30 00:51:14;;;;;;;6.60;6.40;;;15.10;99.90;;;;;;5045667;28;20864;-66
2023/06/30 00:53:42;;;;;;;7.47;6.87;;;15.10;99.90;;;;;;5043867;28;20456;-67
2023/06/30 00:56:08;;;;;;;7.93;7.50;;;15.10;99.90;;;;;;5046935;28;20934;-67
2023/06/30 00:58:36;;;;;;;6.43;6.23;;;15.20;99.90;;;;;;5043960;28;20471;-66
2023/06/30 01:01:11;;;;;;;6.47;6.27;;;15.10;99.90;;;;;;5039799;28;20463;-68
2023/06/30 01:03:44;;;;;;;7.13;6.93;;;15.20;99.90;;;;;;5047741;28;20520;-67
2023/06/30 01:06:21;;;;;;;7.00;6.80;;;15.20;99.90;;;;;;5042001;28;20510;-67
2023/06/30 01:08:53;;;;;;;6.83;6.63;;;15.30;99.90;;;;;;5045277;28;20490;-67
2023/06/30 01:11:21;;;;;;;6.97;6.67;;;15.30;99.90;;;;;;5037376;28;20876;-67
2023/06/30 01:13:49;;;;;;;7.37;7.07;;;15.30;99.90;;;;;;5041446;28;20472;-67
2023/06/30 01:16:18;;;;;;;7.50;7.20;;;15.40;99.90;;;;;;5039700;28;20495;-66
2023/06/30 01:18:52;;;;;;;8.53;8.03;;;15.40;99.90;;;;;;5043015;28;20464;-68
2023/06/30 01:21:21;;;;;;;8.43;8.00;;;15.30;99.90;;;;;;5044621;28;20554;-69
2023/06/30 01:23:53;;;;;;;7.50;7.20;;;15.30;99.90;;;;;;5045293;28;20460;-67
2023/06/30 01:26:21;;;;;;;7.00;6.70;;;15.20;99.90;;;;;;5038946;28;20647;-68
2023/06/30 01:28:50;;;;;;;6.03;5.83;;;15.30;99.90;;;;;;5037938;28;20492;-68
2023/06/30 01:31:18;;;;;;;5.60;5.40;;;15.20;99.90;;;;;;5039528;28;20496;-67
2023/06/30 01:33:47;;;;;;;6.60;6.40;;;15.20;99.90;;;;;;5040069;28;20825;-68
2023/06/30 01:36:14;;;;;;;7.50;7.20;;;15.20;99.90;;;;;;5045369;28;20464;-68
2023/06/30 01:38:41;;;;;;;5.73;5.53;;;15.20;99.90;;;;;;5049759;28;20475;-67
2023/06/30 01:41:09;;;;;;;7.50;7.20;;;15.10;99.90;;;;;;5036473;28;20467;-67
2023/06/30 01:43:37;;;;;;;6.50;6.30;;;15.20;99.90;;;;;;5040109;28;20521;-68
2023/06/30 01:46:04;;;;;;;7.10;6.80;;;15.20;99.90;;;;;;5048790;28;20921;-66
2023/06/30 01:48:32;;;;;;;6.90;6.60;;;15.20;99.90;;;;;;5043926;28;20479;-66
2023/06/30 01:51:00;;;;;;;7.87;7.20;;;15.20;99.90;;;;;;5047711;28;20525;-67
2023/06/30 01:53:27;;;;;;;8.03;7.63;;;15.20;99.90;;;;;;5039905;28;20518;-67
2023/06/30 01:55:55;;;;;;;8.67;8.20;;;15.10;99.90;;;;;;5048991;28;20522;-67
2023/06/30 01:58:22;;;;;;;8.67;8.20;;;15.10;99.90;;;;;;5036747;28;20474;-69
2023/06/30 02:00:49;;;;;;;7.33;7.03;;;15.10;99.90;;;;;;5032717;28;20468;-66
2023/06/30 02:03:16;;;;;;;8.33;7.97;;;15.00;99.90;;;;;;5045086;28;20755;-66
2023/06/30 02:05:43;;;;;;;8.80;8.30;;;15.10;99.90;;;;;;5032502;28;20463;-66
2023/06/30 02:08:12;;;;;;;8.43;7.87;;;15.10;99.90;;;;;;5047519;28;20484;-67
2023/06/30 02:10:38;;;;;;;8.80;8.30;;;15.10;99.90;;;;;;5039121;28;20536;-66
2023/06/30 02:13:05;;;;;;;9.87;8.93;;;15.00;99.90;;;;;;5035091;28;20931;-66
2023/06/30 02:15:32;;;;;;;9.50;8.60;;;15.00;99.90;;;;;;5037342;28;20990;-67
2023/06/30 02:17:59;;;;;;;8.10;7.80;;;15.00;99.90;;;;;;5039166;28;20512;-67
2023/06/30 02:20:26;;;;;;;8.33;8.00;;;15.10;99.90;;;;;;5048595;28;20537;-66
2023/06/30 02:22:53;;;;;;;8.23;7.77;;;15.10;99.90;;;;;;5035386;28;20464;-65
2023/06/30 02:25:21;;;;;;;7.90;7.60;;;15.10;99.90;;;;;;5040134;28;20490;-66
2023/06/30 02:27:48;;;;;;;8.63;8.23;;;15.10;99.90;;;;;;5040631;28;21230;-65
2023/06/30 02:30:16;;;;;;;9.93;9.23;;;15.10;99.90;;;;;;5039027;28;20940;-68
2023/06/30 02:32:44;;;;;;;9.97;9.57;;;15.10;99.90;;;;;;5045810;28;20522;-66
2023/06/30 02:35:12;;;;;;;12.33;7.90;;;15.10;99.90;;;;;;5038341;28;20893;-66
2023/06/30 02:37:39;;;;;;;8.60;8.30;;;15.10;99.90;;;;;;5045577;28;20487;-67
2023/06/30 02:40:09;;;;;;;9.40;8.90;;;15.10;99.90;;;;;;5044697;28;20456;-66
2023/06/30 02:42:37;;;;;;;9.27;8.93;;;15.20;99.90;;;;;;5042125;28;20464;-67
2023/06/30 02:45:05;;;;;;;10.50;9.90;;;15.20;99.90;;;;;;5041344;28;20927;-67
2023/06/30 02:47:32;;;;;;;8.30;7.93;;;15.20;99.90;;;;;;5033815;28;20825;-67
2023/06/30 02:50:00;;;;;;;8.33;8.03;;;15.20;99.90;;;;;;5038668;28;20877;-66
2023/06/30 02:52:27;;;;;;;10.17;9.77;;;15.20;99.90;;;;;;5045063;28;20455;-68
2023/06/30 02:54:57;;;;;;;9.13;8.83;;;15.30;99.90;;;;;;5038336;28;20469;-67
2023/06/30 02:57:24;;;;;;;12.10;11.50;;;15.30;99.90;;;;;;5044008;28;20466;-66
2023/06/30 02:59:52;;;;;;;9.90;9.50;;;15.20;99.90;;;;;;5034811;28;20471;-67
2023/06/30 03:02:18;;;;;;;8.97;8.57;;;15.20;99.90;;;;;;5036589;28;20476;-67
2023/06/30 03:04:46;;;;;;;9.30;8.97;;;15.20;99.90;;;;;;5043762;28;20540;-67
2023/06/30 03:07:12;;;;;;;12.77;11.47;;;15.20;99.90;;;;;;5030090;28;20468;-68
2023/06/30 03:09:40;;;;;;;10.53;10.03;;;15.20;99.90;;;;;;5039155;28;20499;-66
2023/06/30 03:12:08;;;;;;;11.20;10.27;;;15.10;99.90;;;;;;5041182;28;20729;-66
2023/06/30 03:14:35;;;;;;;11.67;10.73;;;15.10;99.90;;;;;;5039741;28;20464;-67
2023/06/30 03:17:03;;;;;;;10.40;9.70;;;15.10;99.90;;;;;;5036876;28;20718;-65
2023/06/30 03:19:30;;;;;;;10.07;9.67;;;15.10;99.90;;;;;;5041273;28;20567;-67
2023/06/30 03:21:57;;;;;;;10.90;10.30;;;15.00;99.90;;;;;;5046155;28;20492;-65
2023/06/30 03:24:24;;;;;;;8.77;8.47;;;15.00;99.90;;;;;;5028262;28;20468;-67
2023/06/30 03:26:51;;;;;;;8.57;8.27;;;15.00;99.90;;;;;;5034836;28;20701;-67
2023/06/30 03:29:17;;;;;;;8.40;8.10;;;15.00;99.90;;;;;;5038941;28;20496;-64
2023/06/30 03:31:44;;;;;;;10.87;10.37;;;15.00;99.90;;;;;;5036820;28;20472;-65
2023/06/30 03:34:13;;;;;;;10.20;9.80;;;15.00;99.90;;;;;;5043770;28;20467;-66
2023/06/30 03:36:41;;;;;;;8.57;8.27;;;15.00;99.90;;;;;;5034093;28;20464;-67
2023/06/30 03:39:08;;;;;;;8.30;8.00;;;15.00;99.90;;;;;;5042813;28;20470;-67
2023/06/30 03:41:35;;;;;;;10.20;9.70;;;15.00;99.90;;;;;;5042572;28;20460;-67
2023/06/30 03:44:02;;;;;;;10.70;10.23;;;15.00;99.90;;;;;;5037895;28;20506;-66
2023/06/30 03:46:29;;;;;;;9.13;8.83;;;14.90;99.90;;;;;;5038919;28;20484;-66
2023/06/30 03:48:56;;;;;;;9.33;9.03;;;15.00;99.90;;;;;;5045180;28;20583;-65
2023/06/30 03:51:24;;;;;;;9.40;9.10;;;15.00;99.90;;;;;;5038469;28;20471;-65
2023/06/30 03:53:51;;;;;;;10.30;9.90;;;15.10;99.90;;;;;;5042103;28;20468;-66
2023/06/30 03:56:18;;;;;;;10.73;9.93;;;15.10;99.90;;;;;;5041615;28;20469;-67
2023/06/30 03:58:46;;;;;;;9.30;9.00;;;15.10;99.90;;;;;;5034880;28;20463;-67
2023/06/30 04:01:13;;;;;;;12.53;12.03;;;15.00;99.90;;;;;;5041220;28;20905;-66
2023/06/30 04:03:40;;;;;;;10.97;10.57;;;15.00;99.90;;;;;;5033085;28;20468;-65
2023/06/30 04:06:07;;;;;;;14.13;12.20;;;15.00;99.90;;;;;;5034675;28;20464;-67
2023/06/30 04:08:36;;;;;;;12.80;11.80;;;15.00;99.90;;;;;;5039712;28;21088;-66
2023/06/30 04:11:03;;;;;;;10.70;10.20;;;15.00;99.90;;;;;;5040581;28;20845;-66
2023/06/30 04:13:30;;;;;;;13.77;12.60;;;15.00;99.90;;;;;;5034672;28;20457;-67
2023/06/30 04:15:58;;;;;;;10.80;10.40;;;15.00;99.90;;;;;;5033521;28;20490;-67
2023/06/30 04:18:26;;;;;;;13.20;12.37;;;15.00;99.90;;;;;;5040929;28;20500;-66
2023/06/30 04:20:52;;;;;;;11.40;10.80;;;15.00;99.90;;;;;;5034320;28;21114;-66
2023/06/30 04:23:19;;;;;;;11.47;10.87;;;14.90;99.90;;;;;;5046835;28;20470;-67
2023/06/30 04:25:48;;;;;;;10.57;10.17;;;14.90;99.90;;;;;;5032216;28;20467;-68
2023/06/30 04:28:15;;;;;;;10.30;9.90;;;14.90;99.90;;;;;;5037427;28;20471;-68
2023/06/30 04:30:42;;;;;;;10.90;10.50;;;14.90;99.90;;;;;;5039623;28;21037;-66
2023/06/30 04:33:09;;;;;;;13.00;12.33;;;14.80;99.90;;;;;;5041100;28;20463;-66
2023/06/30 04:35:36;;;;;;;10.83;10.43;;;14.90;99.90;;;;;;5039284;28;20526;-65
2023/06/30 04:38:02;;;;;;;10.60;10.20;;;14.80;99.90;;;;;;5040561;28;20475;-67
2023/06/30 04:40:29;;;;;;;11.87;11.40;;;14.80;99.90;;;;;;5041383;28;20465;-67
2023/06/30 04:43:00;;;;;;;11.40;11.00;;;14.70;99.90;;;;;;5035976;28;20472;-67
2023/06/30 04:45:27;;;;;;;10.50;10.10;;;14.70;99.90;;;;;;5040179;28;20498;-66
2023/06/30 04:47:54;;;;;;;11.40;11.00;;;14.60;99.90;;;;;;5042579;28;20487;-67
2023/06/30 04:50:21;;;;;;;11.73;11.23;;;14.60;99.90;;;;;;5043376;28;20509;-67
2023/06/30 04:52:48;;;;;;;10.70;10.30;;;14.70;99.90;;;;;;5042166;28;20822;-68
2023/06/30 04:55:14;;;;;;;10.30;9.90;;;14.70;99.90;;;;;;5047370;28;20893;-67
2023/06/30 04:57:41;;;;;;;11.83;11.33;;;14.70;99.90;;;;;;5040249;28;20958;-66
2023/06/30 05:00:11;;;;;;;11.17;10.77;;;14.70;99.90;;;;;;5042375;28;20879;-67
2023/06/30 05:02:38;;;;;;;13.03;12.43;;;14.70;99.90;;;;;;5036627;28;20615;-67
2023/06/30 05:05:05;;;;;;;10.83;10.43;;;14.70;99.90;;;;;;5033745;28;20460;-66
2023/06/30 05:07:32;;;;;;;10.80;10.40;;;14.70;99.90;;;;;;5035769;28;20525;-66
2023/06/30 05:09:59;;;;;;;10.40;9.73;;;14.80;99.90;;;;;;5037304;28;20529;-68
2023/06/30 05:12:26;;;;;;;10.43;10.03;;;14.80;99.90;;;;;;5035588;28;20469;-67
2023/06/30 05:14:53;;;;;;;10.90;10.40;;;14.90;99.90;;;;;;5030264;28;21171;-65
2023/06/30 05:17:21;;;;;;;10.10;9.70;;;15.00;99.90;;;;;;5037879;28;20615;-66
2023/06/30 05:19:48;;;;;;;11.90;11.10;;;15.10;99.90;;;;;;5033019;28;21110;-65
2023/06/30 05:22:15;;;;;;;8.47;8.17;;;15.10;99.90;;;;;;5038612;28;20896;-66
2023/06/30 05:24:42;;;;;;;10.47;9.87;;;15.10;99.90;;;;;;5034676;28;20495;-67
2023/06/30 05:27:09;;;;;;;8.80;8.40;;;15.00;99.90;;;;;;5033050;28;20828;-65
2023/06/30 05:29:36;;;;;;;17.33;10.27;;;14.90;99.90;;;;;;5044110;28;20484;-65
2023/06/30 05:32:04;;;;;;;7.03;6.83;;;14.90;99.90;;;;;;5040286;28;20978;-66
2023/06/30 05:34:32;;;;;;;7.83;7.43;;;15.00;99.90;;;;;;5046328;28;20474;-66
2023/06/30 05:36:59;;;;;;;9.10;8.17;;;15.00;99.90;;;;;;5042196;28;20455;-65
2023/06/30 05:39:26;;;;;;;7.83;7.53;;;15.00;99.90;;;;;;5041050;28;20501;-65
2023/06/30 05:41:53;;;;;;;9.10;8.40;;;15.00;99.90;;;;;;5035173;28;20643;-64
2023/06/30 05:44:20;;;;;;;7.93;7.53;;;15.10;99.90;;;;;;5038591;28;20463;-67
2023/06/30 05:46:47;;;;;;;11.50;9.13;;;15.20;99.90;;;;;;5032651;28;20489;-66
2023/06/30 05:49:15;;;;;;;9.37;8.97;;;15.30;99.90;;;;;;5035941;28;20481;-65
2023/06/30 05:51:43;;;;;;;7.17;6.97;;;15.40;99.90;;;;;;5041151;28;20470;-65
2023/06/30 05:54:10;;;;;;;7.47;7.20;;;15.50;99.90;;;;;;5040758;28;20827;-66
2023/06/30 05:56:37;;;;;;;25.27;8.47;;;15.60;99.90;;;;;;5041239;28;20547;-67
2023/06/30 05:59:04;;;;;;;9.00;8.17;;;15.50;99.90;;;;;;5043839;28;20463;-64
2023/06/30 06:01:31;;;;;;;9.17;8.80;;;15.60;99.90;;;;;;5029576;28;21062;-65
2023/06/30 06:03:58;;;;;;;9.87;9.03;;;15.60;99.90;;;;;;5031424;28;20534;-66
2023/06/30 06:06:25;;;;;;;9.20;8.90;;;15.60;99.90;;;;;;5036447;28;20475;-67
2023/06/30 06:08:53;;;;;;;8.43;8.07;;;15.40;99.90;;;;;;5036477;28;20460;-66
2023/06/30 06:11:20;;;;;;;8.60;8.20;;;15.50;99.90;;;;;;5045158;28;20460;-66
2023/06/30 06:13:47;;;;;;;10.70;10.00;;;15.50;99.90;;;;;;5039831;28;20468;-65
2023/06/30 06:16:14;;;;;;;7.83;7.53;;;15.60;99.90;;;;;;5044691;28;20862;-67
2023/06/30 06:18:41;;;;;;;9.03;8.63;;;15.70;99.90;;;;;;5038950;28;20479;-67
2023/06/30 06:21:08;;;;;;;8.70;8.40;;;15.70;99.90;;;;;;5039990;28;20469;-66
2023/06/30 06:23:35;;;;;;;8.57;8.27;;;15.70;99.90;;;;;;5031190;28;20463;-65
2023/06/30 06:26:03;;;;;;;8.60;8.30;;;15.70;99.90;;;;;;5039360;28;20467;-65
2023/06/30 06:28:30;;;;;;;8.63;8.33;;;15.70;99.90;;;;;;5044788;28;20467;-66
2023/06/30 06:30:57;;;;;;;10.97;10.20;;;15.70;99.90;;;;;;5036201;28;20484;-65
2023/06/30 06:33:24;;;;;;;9.47;9.07;;;15.60;99.90;;;;;;5042372;28;20764;-64
2023/06/30 06:35:52;;;;;;;9.50;9.10;;;15.60;99.90;;;;;;5041739;28;20460;-65
2023/06/30 06:38:19;;;;;;;8.70;8.40;;;15.70;99.90;;;;;;5034744;28;20459;-64
2023/06/30 06:40:47;;;;;;;9.73;9.33;;;15.70;99.90;;;;;;5042504;28;20474;-66
2023/06/30 06:43:16;;;;;;;12.50;11.33;;;15.70;99.90;;;;;;5045877;28;20870;-65
2023/06/30 06:45:43;;;;;;;10.50;10.10;;;15.70;99.90;;;;;;5036616;28;20847;-66
2023/06/30 06:48:19;;;;;;;13.33;12.40;;;15.80;99.90;;;;;;5044266;28;20479;-66
2023/06/30 06:50:47;;;;;;;12.23;11.63;;;15.80;99.90;;;;;;5039751;28;20894;-65
2023/06/30 06:53:20;;;;;;;11.83;11.27;;;15.80;99.90;;;;;;5044777;28;20462;-66
2023/06/30 06:55:48;;;;;;;13.03;12.23;;;15.90;99.90;;;;;;5036039;28;20472;-65
2023/06/30 06:58:16;;;;;;;12.97;12.30;;;16.00;99.90;;;;;;5028141;28;20460;-67
2023/06/30 07:00:44;;;;;;;14.00;13.30;;;16.10;99.90;;;;;;5032039;28;20517;-66
2023/06/30 07:03:11;;;;;;;16.93;12.17;;;16.20;99.90;;;;;;5034472;28;21038;-65
2023/06/30 07:05:40;;;;;;;12.80;12.20;;;16.30;99.90;;;;;;5029175;28;20483;-65
2023/06/30 07:08:07;;;;;;;11.93;11.43;;;16.40;99.90;;;;;;5038938;28;20460;-64
2023/06/30 07:10:34;;;;;;;10.80;10.40;;;16.60;99.90;;;;;;5031941;28;20496;-67
2023/06/30 07:13:01;;;;;;;12.30;11.80;;;16.70;99.90;;;;;;5035233;28;20472;-66
2023/06/30 07:15:30;;;;;;;13.37;12.73;;;16.80;99.90;;;;;;5035361;28;20483;-67
2023/06/30 07:17:57;;;;;;;17.50;15.07;;;16.80;99.90;;;;;;5032613;28;21018;-66
2023/06/30 07:20:24;;;;;;;14.27;13.13;;;17.00;99.90;;;;;;5035805;28;20487;-67
2023/06/30 07:22:52;;;;;;;14.17;13.37;;;17.00;99.90;;;;;;5036580;28;20463;-65
2023/06/30 07:25:18;;;;;;;13.87;13.20;;;17.10;99.90;;;;;;5036872;28;20556;-65
2023/06/30 07:27:52;;;;;;;17.30;14.40;;;17.00;99.90;;;;;;5026379;28;20531;-66
2023/06/30 07:30:20;;;;;;;14.30;13.70;;;16.90;99.90;;;;;;5034369;28;21032;-66
2023/06/30 07:32:49;;;;;;;16.43;15.00;;;16.90;99.90;;;;;;5038905;28;20460;-66
2023/06/30 07:35:17;;;;;;;15.43;14.60;;;16.90;99.90;;;;;;5027559;28;20866;-67
2023/06/30 07:37:44;;;;;;;14.63;14.03;;;17.00;99.90;;;;;;5034155;28;20473;-67
2023/06/30 07:40:12;;;;;;;14.50;13.90;;;16.90;99.90;;;;;;5036067;28;20467;-67
2023/06/30 07:42:39;;;;;;;14.70;14.10;;;16.90;99.90;;;;;;5032637;28;20461;-67
2023/06/30 07:45:09;;;;;;;14.30;13.70;;;17.00;99.90;;;;;;5035726;28;20468;-67
2023/06/30 07:47:36;;;;;;;14.80;13.90;;;17.00;99.90;;;;;;5040525;28;21044;-66
2023/06/30 07:50:09;;;;;;;14.40;13.80;;;17.20;99.90;;;;;;5030638;28;20587;-67
2023/06/30 07:52:36;;;;;;;14.30;13.70;;;17.20;99.90;;;;;;5033791;28;20463;-66
2023/06/30 07:55:04;;;;;;;15.40;14.33;;;17.30;99.90;;;;;;5035948;28;20878;-66
2023/06/30 07:57:31;;;;;;;16.00;15.20;;;17.50;99.90;;;;;;5036803;28;20472;-67
2023/06/30 07:59:57;;;;;;;15.50;14.80;;;17.70;99.90;;;;;;5033261;28;20460;-69
2023/06/30 08:02:25;;;;;;;15.10;14.40;;;17.70;99.90;;;;;;5037104;28;20456;-66
2023/06/30 08:04:51;;;;;;;15.00;14.40;;;17.80;99.90;;;;;;5028008;28;20495;-67
2023/06/30 08:07:20;;;;;;;15.73;14.93;;;18.20;99.90;;;;;;5035902;28;20967;-67
2023/06/30 08:09:47;;;;;;;15.87;15.07;;;18.80;99.90;;;;;;5039092;28;20471;-65
2023/06/30 08:12:15;;;;;;;16.77;15.70;;;19.40;99.90;;;;;;5035364;28;20848;-68
2023/06/30 08:14:42;;;;;;;17.17;16.37;;;19.80;99.90;;;;;;5034425;28;20575;-66
2023/06/30 08:17:09;;;;;;;17.57;16.03;;;20.30;99.90;;;;;;5033875;28;21109;-67
2023/06/30 08:19:41;;;;;;;16.57;15.77;;;20.70;99.90;;;;;;5028905;28;20468;-66
2023/06/30 08:22:08;;;;;;;16.93;15.93;;;20.90;99.90;;;;;;5036697;28;20460;-67
2023/06/30 08:24:36;;;;;;;15.93;15.20;;;21.20;99.90;;;;;;5031835;28;20469;-67
2023/06/30 08:27:04;;;;;;;15.90;15.20;;;21.20;99.90;;;;;;5029109;28;20461;-66
2023/06/30 08:29:31;;;;;;;15.97;15.27;;;21.50;99.90;;;;;;5035521;28;20460;-66
2023/06/30 08:31:57;;;;;;;15.93;15.17;;;21.70;99.90;;;;;;5030051;28;20492;-66
2023/06/30 08:34:26;;;;;;;16.20;15.40;;;22.00;99.90;;;;;;5032034;28;20468;-67
2023/06/30 08:36:53;;;;;;;16.33;15.53;;;22.50;99.90;;;;;;5031931;28;20453;-67
2023/06/30 08:39:20;;;;;;;15.70;15.00;;;23.30;99.90;;;;;;5030487;28;20509;-68
2023/06/30 08:41:50;;;;;;;16.20;15.40;;;24.00;99.90;;;;;;5032821;28;20881;-67
2023/06/30 08:44:19;;;;;;;15.87;15.17;;;23.60;99.90;;;;;;5037709;28;20466;-67
2023/06/30 08:46:45;;;;;;;15.80;15.10;;;23.30;99.90;;;;;;5035923;28;20605;-66
2023/06/30 08:49:13;;;;;;;16.57;15.77;;;23.20;99.90;;;;;;5035548;28;20915;-65
2023/06/30 08:51:41;;;;;;;16.43;15.63;;;22.90;99.90;;;;;;5030697;28;20488;-65
2023/06/30 08:54:09;;;;;;;15.73;15.03;;;22.00;99.90;;;;;;5026656;28;20472;-65
2023/06/30 08:56:39;;;;;;;16.40;15.60;;;21.40;99.90;;;;;;5033110;28;20926;-66
2023/06/30 08:59:08;;;;;;;16.87;16.07;;;21.60;99.90;;;;;;5028410;28;20574;-66
2023/06/30 09:01:36;;;;;;;16.83;16.03;;;22.60;99.90;;;;;;5031736;28;20954;-67
2023/06/30 09:04:04;;;;;;;17.53;16.73;;;23.30;99.90;;;;;;5033644;28;20456;-66
2023/06/30 09:06:36;;;;;;;17.40;16.60;;;23.40;99.90;;;;;;5038090;28;20491;-66
2023/06/30 09:09:06;;;;;;;18.23;17.30;;;23.50;99.90;;;;;;5033534;28;21276;-67
2023/06/30 09:11:35;;;;;;;17.50;16.70;;;23.80;99.90;;;;;;5033956;28;20495;-67
2023/06/30 09:14:03;;;;;;;17.10;16.30;;;23.70;99.90;;;;;;5034809;28;20461;-67
2023/06/30 09:16:33;;;;;;;18.17;17.27;;;23.60;99.90;;;;;;5036907;28;20494;-67
2023/06/30 09:19:00;;;;;;;17.93;17.13;;;24.20;99.90;;;;;;5031583;28;20545;-68
2023/06/30 09:21:27;;;;;;;17.17;16.37;;;24.00;99.90;;;;;;5038159;28;20719;-67
2023/06/30 09:23:54;;;;;;;17.33;16.53;;;24.10;99.90;;;;;;5038662;28;20459;-68
2023/06/30 09:26:20;;;;;;;17.20;16.40;;;24.00;99.90;;;;;;5039388;28;20455;-68
2023/06/30 09:28:47;;;;;;;27.97;26.67;;;24.20;99.90;;;;;;5031835;28;20917;-68
2023/06/30 09:31:15;;;;;;;17.80;17.00;;;24.90;99.90;;;;;;5033323;28;20539;-68
2023/06/30 09:33:47;;;;;;;18.90;17.70;;;25.20;99.90;;;;;;5042689;28;20676;-68
2023/06/30 09:36:18;;;;;;;17.13;16.37;;;25.20;99.90;;;;;;5035952;28;20466;-67
2023/06/30 09:38:45;;;;;;;17.20;16.40;;;24.60;99.90;;;;;;5033136;28;21029;-69
2023/06/30 09:41:20;;;;;;;16.87;15.97;;;24.90;99.90;;;;;;5035693;28;20461;-69
2023/06/30 09:43:48;;;;;;;17.20;16.50;;;24.20;99.90;;;;;;5038201;28;20828;-67
2023/06/30 09:46:15;;;;;;;17.30;16.50;;;23.90;99.90;;;;;;5041033;28;20471;-68
2023/06/30 09:48:43;;;;;;;17.57;16.77;;;24.20;99.90;;;;;;5037145;28;20951;-68
2023/06/30 09:51:12;;;;;;;17.10;16.33;;;24.40;99.90;;;;;;5032544;28;20496;-67
2023/06/30 09:53:40;;;;;;;17.23;16.43;;;24.70;99.90;;;;;;5041179;28;21128;-68
2023/06/30 09:56:08;;;;;;;17.87;17.07;;;25.20;99.90;;;;;;5037832;28;20460;-67
2023/06/30 09:58:35;;;;;;;17.97;17.17;;;25.30;99.50;;;;;;5031779;28;20516;-67
2023/06/30 10:01:02;;;;;;;17.20;16.40;;;25.30;97.30;;;;;;5040200;28;20533;-67
2023/06/30 10:03:29;;;;;;;17.40;16.60;;;25.80;98.00;;;;;;5038012;28;20589;-67
2023/06/30 10:05:56;;;;;;;17.70;16.90;;;26.20;99.10;;;;;;5034416;28;20457;-67
2023/06/30 10:08:25;;;;;;;17.90;17.10;;;25.40;96.60;;;;;;5030925;28;20480;-66
2023/06/30 10:10:54;;;;;;;17.50;16.70;;;25.80;97.00;;;;;;5030346;28;20785;-67
2023/06/30 10:13:21;;;;;;;17.60;16.80;;;26.50;95.80;;;;;;5035891;28;20575;-67
2023/06/30 10:15:49;;;;;;;16.67;15.97;;;26.70;96.50;;;;;;5033581;28;20499;-66
2023/06/30 10:18:18;;;;;;;17.70;16.90;;;26.70;95.10;;;;;;5038609;28;20821;-66
2023/06/30 10:20:46;;;;;;;16.40;15.70;;;26.40;93.80;;;;;;5038134;28;20836;-66
2023/06/30 10:23:14;;;;;;;17.60;16.80;;;25.90;95.00;;;;;;5040567;28;20948;-68
2023/06/30 10:25:42;;;;;;;16.97;16.27;;;26.40;93.70;;;;;;5041173;28;22558;-67
2023/06/30 10:28:10;;;;;;;16.73;16.03;;;27.00;93.80;;;;;;5041358;28;20463;-66
2023/06/30 10:30:38;;;;;;;18.50;17.50;;;27.80;93.00;;;;;;5033922;28;20480;-65
2023/06/30 10:33:04;;;;;;;18.57;17.77;;;28.10;93.10;;;;;;5042115;28;20471;-66
2023/06/30 10:35:32;;;;;;;22.37;21.47;;;27.10;94.80;;;;;;5036064;28;20509;-64
2023/06/30 10:38:01;;;;;;;18.10;17.40;;;26.80;93.90;;;;;;5036119;28;20487;-66
2023/06/30 10:40:29;;;;;;;21.13;20.17;;;26.50;92.10;;;;;;5035149;28;20861;-69
2023/06/30 10:42:58;;;;;;;18.10;17.30;;;26.30;92.60;;;;;;5033981;28;20550;-67
2023/06/30 10:45:30;;;;;;;18.53;17.63;;;25.70;93.60;;;;;;5038099;28;20456;-67
2023/06/30 10:47:57;;;;;;;17.53;16.73;;;25.30;94.30;;;;;;5036318;28;20543;-64
2023/06/30 10:50:24;;;;;;;18.47;17.67;;;25.90;95.00;;;;;;5032667;28;20461;-66
2023/06/30 10:52:53;;;;;;;16.97;16.27;;;26.90;93.60;;;;;;5042455;28;20459;-67
2023/06/30 10:55:23;;;;;;;18.30;17.40;;;26.20;92.50;;;;;;5028921;28;20475;-66
2023/06/30 10:57:52;;;;;;;17.70;16.90;;;26.40;92.30;;;;;;5037154;28;20453;-67
2023/06/30 11:00:24;;;;;;;17.57;16.80;;;26.10;94.20;;;;;;5032711;28;20465;-66
2023/06/30 11:02:56;;;;;;;17.20;16.40;;;26.20;93.40;;;;;;5033917;28;20465;-67
2023/06/30 11:05:24;;;;;;;23.50;22.40;;;26.60;92.30;;;;;;5030432;28;20467;-67
2023/06/30 11:07:53;;;;;;;22.60;21.40;;;27.20;92.00;;;;;;5030514;28;20463;-66
2023/06/30 11:10:35;;;;;;;23.80;22.20;;;26.00;91.30;;;;;;5034079;28;20974;-67
2023/06/30 11:13:03;;;;;;;18.70;17.80;;;25.70;92.40;;;;;;5034314;28;20492;-69
2023/06/30 11:15:45;;;;;;;17.70;16.90;;;26.00;93.10;;;;;;5036061;28;20480;-67
2023/06/30 11:18:14;;;;;;;18.17;17.37;;;26.30;91.10;;;;;;5027477;28;20710;-67
2023/06/30 11:20:59;;;;;;;17.53;16.73;;;26.90;91.20;;;;;;5036127;28;20519;-68
2023/06/30 11:23:28;;;;;;;18.00;17.20;;;27.80;88.90;;;;;;5032983;28;20464;-69
2023/06/30 11:25:56;;;;;;;18.23;17.37;;;29.10;90.00;;;;;;5042688;28;20479;-68
2023/06/30 11:28:25;;;;;;;18.33;17.53;;;29.40;83.90;;;;;;5025973;28;20468;-68
2023/06/30 11:30:53;;;;;;;17.63;16.90;;;28.20;85.20;;;;;;5033739;28;20547;-68
2023/06/30 11:33:21;;;;;;;18.90;18.00;;;28.00;88.20;;;;;;5043645;28;20456;-68
2023/06/30 11:35:52;;;;;;;17.83;17.03;;;26.50;87.60;;;;;;5026688;28;20558;-67
2023/06/30 11:38:19;;;;;;;18.07;17.13;;;25.60;91.00;;;;;;5032662;28;20465;-69
2023/06/30 11:40:49;;;;;;;17.40;16.60;;;25.00;91.60;;;;;;5032338;28;20552;-69
2023/06/30 11:43:17;;;;;;;17.80;17.00;;;24.50;92.10;;;;;;5032229;28;20554;-69
2023/06/30 11:45:54;;;;;;;17.60;16.80;;;25.20;91.80;;;;;;5031381;28;20460;-69
2023/06/30 11:48:22;;;;;;;17.63;16.83;;;26.30;91.30;;;;;;5035752;28;20486;-67
2023/06/30 11:50:50;;;;;;;18.00;17.20;;;27.20;90.10;;;;;;5034192;28;20949;-67
2023/06/30 11:53:17;;;;;;;16.90;16.17;;;27.10;89.20;;;;;;5031358;28;20832;-66
2023/06/30 11:55:44;;;;;;;16.47;15.60;;;26.60;90.90;;;;;;5035875;28;20460;-69
2023/06/30 11:58:11;;;;;;;15.57;14.80;;;25.90;91.60;;;;;;5031836;28;20467;-69
2023/06/30 12:00:43;;;;;;;15.63;15.03;;;25.90;91.50;;;;;;5039927;28;21010;-69
2023/06/30 12:03:14;;;;;;;16.67;15.87;;;26.60;88.30;;;;;;5032973;28;20468;-69
2023/06/30 12:05:42;;;;;;;15.90;15.20;;;26.90;91.50;;;;;;5037152;28;20456;-68
2023/06/30 12:08:09;;;;;;;17.23;16.33;;;27.60;89.00;;;;;;5027257;28;20531;-70
2023/06/30 12:10:37;;;;;;;17.67;16.67;;;28.20;88.60;;;;;;5032970;28;20460;-69
2023/06/30 12:13:07;;;;;;;16.50;15.80;;;28.80;86.10;;;;;;5036044;28;20928;-70
2023/06/30 12:15:35;;;;;;;16.77;16.07;;;27.80;84.40;;;;;;5033797;28;20484;-67
2023/06/30 12:18:04;;;;;;;15.33;14.73;;;27.10;88.60;;;;;;5030639;28;20496;-68
2023/06/30 12:20:35;;;;;;;15.23;14.63;;;26.40;87.20;;;;;;5034338;28;20539;-68
2023/06/30 12:23:05;;;;;;;15.80;15.10;;;26.40;90.20;;;;;;5027471;28;20467;-68
2023/06/30 12:25:33;;;;;;;16.33;15.53;;;26.50;87.50;;;;;;5031598;28;20469;-67
2023/06/30 12:28:02;;;;;;;15.17;14.57;;;26.80;88.10;;;;;;5038388;28;20959;-68
2023/06/30 12:30:29;;;;;;;16.57;15.77;;;26.90;86.50;;;;;;5034319;28;20468;-68
2023/06/30 12:32:58;;;;;;;16.00;15.30;;;26.70;87.90;;;;;;5029213;28;20492;-67
2023/06/30 12:35:32;;;;;;;15.53;14.93;;;27.60;86.30;;;;;;5026750;28;20504;-67
2023/06/30 12:38:00;;;;;;;16.57;15.80;;;27.80;86.60;;;;;;5042118;28;20457;-67